Time;durP1;ratioP1;P1;durP2;ratioP2;P2;SDS_P1;SDS_P2;PMS_P1;PMS_P2;Temp;Humidity;BMP_temperature;BMP_pressure;BME280_temperature;BME280_humidity;BME280_pressure;Samples;Min_cycle;Max_cycle;Signal;HPM_P1;HPM_P2
2021/04/03 00:00:44;;;;;;;16.23;7.78;;;;;;;0.38;74.93;98856.83;1683947;84;21166;-61
2021/04/03 00:03:13;;;;;;;17.75;8.53;;;;;;;0.31;75.13;98863.31;1669829;86;21210;-62
2021/04/03 00:05:41;;;;;;;15.45;8.00;;;;;;;0.30;75.40;98860.33;1689286;84;21317;-62
2021/04/03 00:08:10;;;;;;;18.37;8.98;;;;;;;0.22;75.77;98861.98;1696027;84;21516;-62
2021/04/03 00:10:53;;;;;;;18.70;8.65;;;;;;;0.20;76.01;98861.40;1697148;84;21174;-61
2021/04/03 00:13:23;;;;;;;17.62;8.70;;;;;;;0.17;76.24;98865.36;1695498;84;21171;-62
2021/04/03 00:15:51;;;;;;;20.82;9.18;;;;;;;0.14;76.43;98869.83;1693472;84;21191;-62
2021/04/03 00:18:18;;;;;;;18.80;8.80;;;;;;;0.14;76.66;98873.84;1688400;84;21146;-62
2021/04/03 00:20:47;;;;;;;20.20;9.88;;;;;;;0.17;76.53;98878.73;1690125;84;21211;-62
2021/04/03 00:23:18;;;;;;;18.77;9.15;;;;;;;0.16;76.51;98865.05;1690748;84;21739;-61
2021/04/03 00:25:45;;;;;;;22.07;10.55;;;;;;;0.23;76.32;98863.10;1694640;84;21633;-62
2021/04/03 00:28:13;;;;;;;20.45;10.85;;;;;;;0.35;75.87;98865.83;1674087;84;21187;-62
2021/04/03 00:30:41;;;;;;;19.48;10.38;;;;;;;0.34;75.87;98861.52;1669911;84;21212;-61
2021/04/03 00:33:09;;;;;;;17.10;10.28;;;;;;;0.37;75.84;98864.55;1673483;84;21232;-62
2021/04/03 00:35:39;;;;;;;18.62;10.05;;;;;;;0.47;75.51;98859.47;1692520;84;21610;-62
2021/04/03 00:38:11;;;;;;;16.27;9.18;;;;;;;0.52;75.20;98861.47;1696838;84;21220;-62
2021/04/03 00:40:42;;;;;;;14.75;8.33;;;;;;;0.49;75.01;98857.91;1683778;84;21558;-63
2021/04/03 00:43:13;;;;;;;14.90;8.53;;;;;;;0.56;74.69;98859.97;1677455;84;21186;-62
2021/04/03 00:45:41;;;;;;;15.68;8.05;;;;;;;0.59;74.38;98848.80;1696662;84;21345;-63
2021/04/03 00:48:10;;;;;;;15.55;8.95;;;;;;;0.58;74.31;98853.84;1677599;84;21183;-62
2021/04/03 00:50:42;;;;;;;15.38;8.25;;;;;;;0.56;74.28;98857.81;1692243;84;21138;-63
2021/04/03 00:53:13;;;;;;;11.40;6.55;;;;;;;0.59;74.13;98857.34;1688860;84;21715;-63
2021/04/03 00:55:43;;;;;;;11.68;6.92;;;;;;;0.67;73.81;98857.03;1694602;84;21979;-63
2021/04/03 00:58:10;;;;;;;10.95;6.37;;;;;;;0.64;73.76;98860.17;1685485;83;21157;-63
2021/04/03 01:00:39;;;;;;;10.70;6.10;;;;;;;0.59;73.89;98858.69;1715296;83;21538;-63
2021/04/03 01:03:07;;;;;;;11.00;5.97;;;;;;;0.60;73.81;98858.99;1695755;83;21918;-63
2021/04/03 01:05:35;;;;;;;9.90;6.60;;;;;;;0.57;73.73;98864.26;1696906;83;21762;-62
2021/04/03 01:08:04;;;;;;;10.18;6.42;;;;;;;0.62;73.54;98863.58;1694769;83;21658;-63
2021/04/03 01:10:38;;;;;;;10.85;6.15;;;;;;;0.63;73.46;98857.19;1704086;83;21306;-62
2021/04/03 01:13:54;;;;;;;12.33;6.87;;;;;;;0.64;73.34;98861.51;1708749;83;21173;-63
2021/04/03 01:16:33;;;;;;;13.25;7.08;;;;;;;0.61;73.36;98862.77;1688981;83;21141;-62
2021/04/03 01:19:25;;;;;;;12.00;6.45;;;;;;;0.55;73.36;98857.51;1694849;83;21145;-61
2021/04/03 01:22:28;;;;;;;10.48;5.67;;;;;;;0.54;73.29;98856.69;1708729;83;21291;-61
2021/04/03 01:25:21;;;;;;;12.05;7.20;;;;;;;0.54;73.31;98861.22;1654854;83;21244;-61
2021/04/03 01:28:32;;;;;;;10.80;6.00;;;;;;;0.41;73.64;98854.20;1693591;83;21171;-61
2021/04/03 01:31:00;;;;;;;12.68;5.95;;;;;;;0.42;73.72;98851.83;1694674;83;21176;-62
2021/04/03 01:33:27;;;;;;;14.00;7.12;;;;;;;0.39;73.74;98847.73;1701676;83;21294;-62
2021/04/03 01:38:56;;;;;;;11.78;6.50;;;;;;;0.36;73.81;98851.38;1746306;79;22628;-61
2021/04/03 01:41:26;;;;;;;10.90;5.65;;;;;;;0.28;73.90;98853.88;1705935;83;21193;-61
2021/04/03 01:43:54;;;;;;;11.40;5.78;;;;;;;0.26;73.75;98851.11;1712880;83;21242;-61
2021/04/03 01:46:31;;;;;;;11.33;6.15;;;;;;;0.21;73.73;98849.14;1700445;83;21153;-61
2021/04/03 01:49:03;;;;;;;12.30;6.65;;;;;;;0.14;73.96;98844.40;1707134;83;21299;-61
2021/04/03 01:51:32;;;;;;;13.83;6.80;;;;;;;0.10;73.88;98845.06;1712057;83;21315;-61
2021/04/03 01:54:00;;;;;;;14.35;7.20;;;;;;;0.05;74.02;98852.42;1702684;83;21164;-61
2021/04/03 01:56:28;;;;;;;12.45;7.33;;;;;;;0.03;74.12;98843.82;1638297;87;21164;-61
2021/04/03 01:58:56;;;;;;;13.38;6.87;;;;;;;0.03;74.42;98849.69;1682268;84;21175;-61
2021/04/03 02:01:24;;;;;;;14.25;7.12;;;;;;;-0.01;74.72;98851.48;1673208;85;21608;-61
2021/04/03 02:03:53;;;;;;;11.93;6.03;;;;;;;-0.01;74.61;98849.32;1727901;83;21709;-61
2021/04/03 02:06:22;;;;;;;12.07;6.25;;;;;;;-0.04;74.55;98853.79;1683195;82;21148;-61
2021/04/03 02:09:05;;;;;;;14.75;7.33;;;;;;;-0.05;74.63;98857.50;1808204;79;23357;-62
2021/04/03 02:11:38;;;;;;;14.85;6.90;;;;;;;-0.16;74.72;98848.88;1721881;81;21163;-61
2021/04/03 02:14:07;;;;;;;14.33;7.25;;;;;;;-0.24;74.99;98843.83;1704740;83;21190;-63
2021/04/03 02:16:37;;;;;;;12.20;6.97;;;;;;;-0.27;75.19;98846.95;1738188;81;21169;-61
2021/04/03 02:19:10;;;;;;;14.20;7.03;;;;;;;-0.29;75.16;98852.55;1723320;83;21198;-61
2021/04/03 02:21:39;;;;;;;12.73;6.50;;;;;;;-0.28;75.10;98853.34;1735324;81;21702;-61
2021/04/03 02:24:09;;;;;;;15.25;7.35;;;;;;;-0.30;75.20;98856.77;1739569;81;21196;-61
2021/04/03 02:26:36;;;;;;;15.20;8.48;;;;;;;-0.36;75.55;98856.33;1755192;81;21270;-61
2021/04/03 02:29:07;;;;;;;17.05;8.23;;;;;;;-0.46;76.07;98842.12;1740372;81;21316;-61
2021/04/03 02:31:36;;;;;;;13.93;7.33;;;;;;;-0.49;76.27;98849.25;1741742;81;21202;-61
2021/04/03 02:34:04;;;;;;;14.00;7.95;;;;;;;-0.52;76.27;98857.20;1757694;81;21622;-61
2021/04/03 02:36:35;;;;;;;14.73;7.85;;;;;;;-0.68;76.91;98860.47;1744518;81;21137;-60
2021/04/03 02:39:04;;;;;;;15.50;7.70;;;;;;;-0.73;77.37;98860.81;1722459;81;21172;-60
2021/04/03 02:41:57;;;;;;;17.90;7.72;;;;;;;-0.77;77.67;98852.42;1744978;81;21624;-61
2021/04/03 02:44:40;;;;;;;14.40;8.03;;;;;;;-0.78;77.88;98861.47;1733467;81;21172;-61
2021/04/03 02:47:18;;;;;;;14.23;7.40;;;;;;;-0.78;78.03;98864.14;1730139;81;21188;-61
2021/04/03 02:50:11;;;;;;;12.95;7.53;;;;;;;-0.79;78.22;98865.71;1743741;81;21152;-61
2021/04/03 02:52:39;;;;;;;12.55;7.45;;;;;;;-0.89;78.59;98861.39;1681306;84;21178;-61
2021/04/03 02:55:08;;;;;;;12.45;7.00;;;;;;;-0.86;78.60;98856.42;1729935;81;21205;-61
2021/04/03 02:57:37;;;;;;;15.30;7.72;;;;;;;-0.90;78.58;98858.41;1714249;83;21681;-61
2021/04/03 03:00:08;;;;;;;15.25;8.30;;;;;;;-0.86;79.00;98863.62;1727846;83;21192;-61
2021/04/03 03:02:37;;;;;;;10.95;6.45;;;;;;;-0.78;78.85;98861.47;1721912;82;21155;-61
2021/04/03 03:05:07;;;;;;;14.85;8.58;;;;;;;-0.77;78.96;98863.11;1728915;82;21303;-61
2021/04/03 03:07:35;;;;;;;16.02;8.13;;;;;;;-0.70;78.78;98857.70;1723278;82;21177;-61
2021/04/03 03:10:04;;;;;;;16.50;8.50;;;;;;;-0.71;78.63;98856.08;1715470;83;21588;-61
2021/04/03 03:12:33;;;;;;;15.15;9.18;;;;;;;-0.70;78.42;98853.69;1691337;83;21180;-61
2021/04/03 03:15:04;;;;;;;17.77;9.00;;;;;;;-0.70;78.26;98849.67;1675687;83;21202;-61
2021/04/03 03:17:32;;;;;;;15.53;7.33;;;;;;;-0.68;78.02;98857.80;1708499;83;21209;-61
2021/04/03 03:20:02;;;;;;;16.57;8.30;;;;;;;-0.67;78.06;98858.07;1686764;83;21599;-61
2021/04/03 03:22:30;;;;;;;13.78;8.20;;;;;;;-0.66;78.03;98858.89;1651487;85;21641;-61
2021/04/03 03:24:57;;;;;;;13.70;7.58;;;;;;;-0.71;78.19;98859.55;1671066;84;21222;-61
2021/04/03 03:27:25;;;;;;;15.83;6.87;;;;;;;-0.75;78.29;98853.55;1691651;84;21177;-61
2021/04/03 03:29:53;;;;;;;14.35;7.83;;;;;;;-0.79;78.28;98854.51;1684591;84;21511;-61
2021/04/03 03:32:21;;;;;;;15.08;7.70;;;;;;;-0.75;78.17;98854.88;1661605;84;21217;-61
2021/04/03 03:34:50;;;;;;;15.03;7.83;;;;;;;-0.80;78.32;98855.53;1685662;84;21296;-60
2021/04/03 03:37:18;;;;;;;15.23;8.63;;;;;;;-0.87;78.72;98853.95;1754366;82;21272;-61
2021/04/03 03:39:47;;;;;;;15.70;8.50;;;;;;;-0.85;78.68;98851.90;1746456;82;21133;-61
2021/04/03 03:42:16;;;;;;;14.83;9.10;;;;;;;-0.87;78.64;98845.43;1752735;82;21160;-61
2021/04/03 03:44:44;;;;;;;13.30;8.30;;;;;;;-0.86;78.57;98842.24;1752485;81;21160;-61
2021/04/03 03:47:13;;;;;;;15.78;8.68;;;;;;;-0.86;78.65;98844.40;1755731;81;21216;-61
2021/04/03 03:49:42;;;;;;;13.72;8.00;;;;;;;-0.85;78.72;98848.69;1752162;82;21152;-61
2021/04/03 03:52:10;;;;;;;16.90;8.00;;;;;;;-0.83;78.82;98848.48;1752810;82;21158;-61
2021/04/03 03:54:38;;;;;;;13.43;7.22;;;;;;;-0.80;78.73;98848.86;1753842;82;21161;-61
2021/04/03 03:57:07;;;;;;;14.98;7.72;;;;;;;-0.77;78.63;98848.92;1752877;82;21121;-61
2021/04/03 03:59:36;;;;;;;16.82;8.25;;;;;;;-0.77;78.68;98856.43;1705614;81;21172;-61
2021/04/03 04:02:04;;;;;;;16.00;8.03;;;;;;;-0.72;78.65;98855.27;1755556;81;21664;-61
2021/04/03 04:04:32;;;;;;;13.95;7.28;;;;;;;-0.69;78.66;98855.33;1752627;82;21178;-61
2021/04/03 04:07:03;;;;;;;15.45;7.87;;;;;;;-0.66;78.65;98863.73;1722543;82;21204;-61
2021/04/03 04:09:30;;;;;;;20.52;8.40;;;;;;;-0.65;78.77;98867.22;1757144;80;21639;-61
2021/04/03 04:12:05;;;;;;;11.80;7.25;;;;;;;-0.57;78.65;98870.41;1747000;81;21142;-61
2021/04/03 04:14:35;;;;;;;11.85;6.72;;;;;;;-0.51;78.54;98877.56;1760222;81;21121;-61
2021/04/03 04:17:04;;;;;;;15.08;7.20;;;;;;;-0.44;78.28;98882.84;1747276;81;21170;-62
2021/04/03 04:19:34;;;;;;;15.25;7.42;;;;;;;-0.39;78.17;98875.50;1773879;81;21129;-63
2021/04/03 04:22:03;;;;;;;12.40;7.28;;;;;;;-0.34;78.07;98873.78;1751474;80;21101;-62
2021/04/03 04:24:30;;;;;;;11.12;6.30;;;;;;;-0.27;77.94;98876.38;1762792;81;21714;-63
2021/04/03 04:26:58;;;;;;;12.15;5.70;;;;;;;-0.20;77.88;98868.58;1712850;82;21569;-63
2021/04/03 04:29:26;;;;;;;11.95;6.72;;;;;;;-0.10;77.79;98876.06;1734023;80;21153;-62
2021/04/03 04:31:54;;;;;;;11.73;6.55;;;;;;;-0.06;77.68;98871.91;1747271;80;21130;-63
2021/04/03 04:34:23;;;;;;;11.93;6.05;;;;;;;0.09;77.51;98857.63;1753772;80;21157;-62
2021/04/03 04:36:53;;;;;;;9.80;5.85;;;;;;;0.18;77.35;98866.97;1750277;81;21778;-63
2021/04/03 04:39:22;;;;;;;13.22;6.47;;;;;;;0.29;77.02;98864.05;1754870;81;21299;-63
2021/04/03 04:41:52;;;;;;;10.45;6.15;;;;;;;0.32;76.72;98862.28;1747681;81;21090;-62
2021/04/03 04:44:20;;;;;;;13.28;6.42;;;;;;;0.39;76.39;98863.00;1753089;81;21154;-63
2021/04/03 04:46:48;;;;;;;15.65;6.90;;;;;;;0.48;76.20;98859.77;1747565;81;21146;-63
2021/04/03 04:49:16;;;;;;;12.25;6.92;;;;;;;0.67;75.66;98859.70;1755191;81;21129;-61
2021/04/03 04:51:45;;;;;;;13.93;7.50;;;;;;;0.76;75.46;98864.50;1761426;81;21139;-62
2021/04/03 04:54:14;;;;;;;14.13;8.08;;;;;;;0.80;74.97;98872.37;1747243;81;21529;-62
2021/04/03 04:56:44;;;;;;;14.70;7.40;;;;;;;0.80;74.67;98867.02;1692771;83;21151;-62
2021/04/03 04:59:12;;;;;;;13.28;7.95;;;;;;;0.85;74.07;98865.78;1771900;81;21161;-62
2021/04/03 05:01:41;;;;;;;13.80;6.60;;;;;;;0.95;73.88;98869.27;1765947;81;21177;-62
2021/04/03 05:04:10;;;;;;;11.57;6.45;;;;;;;1.06;73.11;98877.02;1755601;80;21124;-62
2021/04/03 05:06:37;;;;;;;11.65;6.50;;;;;;;1.19;73.22;98867.41;1757509;81;21718;-62
2021/04/03 05:09:05;;;;;;;12.80;6.55;;;;;;;1.40;72.64;98868.17;1756671;80;21302;-58
2021/04/03 05:11:33;;;;;;;11.28;6.62;;;;;;;1.60;72.36;98859.23;1742527;80;21170;-59
2021/04/03 05:14:01;;;;;;;10.15;5.70;;;;;;;1.79;71.51;98861.25;1751303;80;21622;-60
2021/04/03 05:16:28;;;;;;;9.78;5.80;;;;;;;2.01;70.96;98864.95;1772049;80;21149;-59
2021/04/03 05:18:55;;;;;;;9.53;4.83;;;;;;;2.17;69.57;98848.59;1769261;80;21173;-60
2021/04/03 05:21:22;;;;;;;8.73;4.87;;;;;;;2.46;69.09;98861.80;1756224;80;21636;-61
2021/04/03 05:23:51;;;;;;;7.78;5.00;;;;;;;2.73;69.29;98859.88;1755008;82;21153;-60
2021/04/03 05:26:18;;;;;;;7.78;4.58;;;;;;;3.07;67.86;98858.83;1757041;80;21279;-60
2021/04/03 05:28:46;;;;;;;7.50;4.15;;;;;;;3.26;65.56;98858.05;1759826;80;21229;-60
2021/04/03 05:31:14;;;;;;;7.60;3.65;;;;;;;3.37;65.45;98859.81;1728497;80;21286;-60
2021/04/03 05:33:41;;;;;;;8.10;3.95;;;;;;;3.54;65.00;98867.89;1756980;80;21197;-59
2021/04/03 05:36:10;;;;;;;9.13;4.45;;;;;;;3.57;63.43;98855.28;1770180;80;21122;-60
2021/04/03 05:38:38;;;;;;;11.78;4.60;;;;;;;3.78;63.63;98875.50;1767774;80;21149;-60
2021/04/03 05:41:06;;;;;;;7.10;3.83;;;;;;;3.93;62.88;98874.34;1781385;80;21430;-59
2021/04/03 05:43:34;;;;;;;4.90;2.62;;;;;;;3.99;62.21;98884.66;1754770;80;21288;-60
2021/04/03 05:46:03;;;;;;;6.42;2.92;;;;;;;4.04;61.24;98891.44;1768731;80;21129;-60
2021/04/03 05:48:33;;;;;;;6.75;2.87;;;;;;;4.12;61.87;98884.80;1768948;80;21506;-60
2021/04/03 05:51:01;;;;;;;6.72;2.80;;;;;;;4.25;61.74;98889.28;1749906;80;21149;-60
2021/04/03 05:53:28;;;;;;;7.85;2.85;;;;;;;4.41;61.41;98884.89;1761539;80;21129;-60
2021/04/03 05:55:58;;;;;;;5.30;2.80;;;;;;;4.62;61.93;98883.23;1773102;80;21636;-61
2021/04/03 05:58:26;;;;;;;8.18;2.75;;;;;;;4.84;61.16;98882.13;1756995;80;21631;-60
2021/04/03 06:00:55;;;;;;;6.33;2.87;;;;;;;5.16;60.94;98880.80;1757691;80;21268;-60
2021/04/03 06:03:23;;;;;;;5.75;2.75;;;;;;;5.39;59.32;98883.13;1760656;80;21153;-60
2021/04/03 06:05:53;;;;;;;5.45;3.22;;;;;;;5.48;58.47;98875.38;1760883;80;21153;-60
2021/04/03 06:08:21;;;;;;;5.80;3.50;;;;;;;5.55;57.32;98878.66;1765762;80;21344;-60
2021/04/03 06:11:12;;;;;;;6.33;3.60;;;;;;;5.55;56.57;98887.29;1750896;81;21087;-60
2021/04/03 06:13:49;;;;;;;6.40;3.17;;;;;;;5.65;56.97;98893.57;1764675;81;21145;-59
2021/04/03 06:16:39;;;;;;;7.00;3.85;;;;;;;5.67;56.70;98896.81;1746082;81;21288;-59
2021/04/03 06:19:22;;;;;;;7.17;3.35;;;;;;;5.62;56.31;98892.75;1758880;80;21457;-60
2021/04/03 06:21:58;;;;;;;7.08;4.00;;;;;;;5.61;56.88;98901.09;1774476;80;21557;-61
2021/04/03 06:24:36;;;;;;;5.33;3.10;;;;;;;5.57;56.30;98904.03;1747452;80;21186;-59
2021/04/03 06:27:12;;;;;;;6.45;3.47;;;;;;;5.66;57.87;98910.59;1747713;81;21731;-60
2021/04/03 06:29:51;;;;;;;6.92;3.80;;;;;;;5.95;56.93;98908.63;1813865;77;23133;-60
2021/04/03 06:32:28;;;;;;;8.43;4.25;;;;;;;6.05;55.25;98910.59;1782674;80;21605;-61
2021/04/03 06:34:55;;;;;;;10.23;4.55;;;;;;;6.10;55.14;98911.95;1751853;80;21713;-61
2021/04/03 06:37:33;;;;;;;6.42;3.83;;;;;;;6.24;55.72;98913.64;1760045;80;21121;-61
2021/04/03 06:40:08;;;;;;;6.10;3.77;;;;;;;6.44;55.00;98916.45;1752521;82;21560;-60
2021/04/03 06:42:51;;;;;;;6.10;3.40;;;;;;;6.58;56.16;98916.23;1754139;80;21612;-60
2021/04/03 06:45:31;;;;;;;7.15;3.92;;;;;;;6.78;54.40;98915.46;1724010;81;21199;-61
2021/04/03 06:48:06;;;;;;;7.92;3.77;;;;;;;6.83;54.06;98914.95;1701755;84;21197;-61
2021/04/03 06:50:44;;;;;;;8.18;3.77;;;;;;;6.98;55.15;98924.44;1692326;83;21149;-61
2021/04/03 06:53:16;;;;;;;8.05;4.40;;;;;;;7.20;54.44;98933.67;1698964;83;21170;-61
2021/04/03 06:55:48;;;;;;;7.42;4.42;;;;;;;7.41;53.72;98931.25;1717420;81;21185;-60
2021/04/03 06:58:16;;;;;;;7.30;3.90;;;;;;;7.61;53.10;98935.87;1700721;84;21130;-62
2021/04/03 07:00:43;;;;;;;7.37;3.80;;;;;;;7.82;52.22;98942.08;1698389;83;21169;-59
2021/04/03 07:05:58;;;;;;;7.72;3.33;;;;;;;8.15;50.08;98940.09;1756859;79;22937;-61
2021/04/03 07:08:26;;;;;;;7.50;3.50;;;;;;;8.17;51.53;98939.30;1663508;85;21545;-59
2021/04/03 07:10:54;;;;;;;6.00;3.20;;;;;;;8.34;50.40;98943.89;1646996;86;21157;-59
2021/04/03 07:13:22;;;;;;;6.75;2.90;;;;;;;8.48;49.83;98949.53;1668048;85;21167;-59
2021/04/03 07:15:52;;;;;;;6.25;3.25;;;;;;;8.61;49.57;98956.28;1670454;85;21213;-59
2021/04/03 07:18:21;;;;;;;5.12;2.62;;;;;;;8.68;48.97;98950.80;1676415;85;21359;-59
2021/04/03 07:20:48;;;;;;;8.98;3.58;;;;;;;8.72;49.01;98957.29;1636643;85;21628;-59
2021/04/03 07:23:16;;;;;;;5.53;2.47;;;;;;;8.69;47.99;98959.75;1658397;85;21175;-58
2021/04/03 07:25:46;;;;;;;5.33;2.77;;;;;;;8.67;48.46;98964.11;1651547;85;21184;-58
2021/04/03 07:28:16;;;;;;;5.40;2.50;;;;;;;8.68;46.95;98952.72;1651443;85;21164;-59
2021/04/03 07:30:46;;;;;;;4.62;2.33;;;;;;;8.71;47.40;98961.66;1650814;87;21643;-59
2021/04/03 07:33:21;;;;;;;4.70;2.12;;;;;;;8.80;44.77;98958.08;1656535;85;21625;-59
2021/04/03 07:35:59;;;;;;;5.40;2.40;;;;;;;8.86;44.76;98960.20;1670772;85;21323;-59
2021/04/03 07:38:30;;;;;;;4.15;1.95;;;;;;;8.78;45.72;98954.02;1677947;85;21692;-61
2021/04/03 07:44:11;;;;;;;3.85;2.05;;;;;;;8.89;43.70;98963.75;1733830;79;23127;-61
2021/04/03 07:46:47;;;;;;;3.77;1.87;;;;;;;8.87;44.32;98976.77;1714986;83;21176;-61
2021/04/03 07:49:32;;;;;;;4.95;2.08;;;;;;;8.89;43.05;98977.31;1713751;83;21153;-60
2021/04/03 07:52:00;;;;;;;4.20;2.12;;;;;;;8.83;41.76;98975.16;1705145;83;21589;-61
2021/04/03 07:54:30;;;;;;;6.05;2.65;;;;;;;8.85;42.88;98979.78;1650859;85;21231;-62
2021/04/03 07:57:00;;;;;;;4.90;2.25;;;;;;;8.93;42.29;98987.31;1659820;85;21527;-61
2021/04/03 07:59:47;;;;;;;6.50;2.98;;;;;;;9.06;43.37;98990.52;1656568;85;21195;-61
2021/04/03 08:02:18;;;;;;;7.83;4.75;;;;;;;9.26;43.91;98987.14;1657639;85;21305;-61
2021/04/03 08:04:46;;;;;;;4.03;2.20;;;;;;;9.55;43.06;98973.63;1660394;85;21192;-61
2021/04/03 08:07:14;;;;;;;3.37;1.60;;;;;;;9.71;41.36;98966.16;1683740;85;21233;-60
2021/04/03 08:09:42;;;;;;;3.55;1.67;;;;;;;9.66;41.08;98975.19;1683775;85;21214;-62
2021/04/03 08:12:09;;;;;;;4.53;1.70;;;;;;;9.60;41.23;98966.00;1672685;85;21333;-60
2021/04/03 08:14:39;;;;;;;2.72;1.10;;;;;;;9.59;41.55;98973.34;1681063;85;21123;-61
2021/04/03 08:17:08;;;;;;;2.52;1.00;;;;;;;9.55;39.08;98961.41;1662791;85;21157;-60
2021/04/03 08:19:38;;;;;;;2.50;1.20;;;;;;;9.47;38.48;98965.54;1671743;85;21605;-61
2021/04/03 08:22:09;;;;;;;3.27;1.05;;;;;;;9.39;38.83;98963.41;1661502;85;21720;-61
2021/04/03 08:24:37;;;;;;;1.02;0.47;;;;;;;9.32;37.58;98969.71;1655571;85;21302;-61
2021/04/03 08:27:07;;;;;;;2.05;1.07;;;;;;;9.39;36.34;98965.31;1667948;85;21164;-61
2021/04/03 08:29:39;;;;;;;2.83;1.40;;;;;;;9.42;35.41;98971.56;1653651;85;21865;-60
2021/04/03 08:32:07;;;;;;;2.62;0.88;;;;;;;9.47;35.95;98965.54;1677352;84;21197;-62
2021/04/03 08:34:37;;;;;;;2.20;0.90;;;;;;;9.67;37.19;98971.92;1652149;85;21282;-61
2021/04/03 08:37:06;;;;;;;3.17;1.00;;;;;;;9.83;37.68;98976.12;1624842;87;21149;-61
2021/04/03 08:39:36;;;;;;;2.87;1.22;;;;;;;9.85;35.81;98964.41;1650995;87;21200;-61
2021/04/03 08:42:04;;;;;;;2.58;0.98;;;;;;;9.88;37.11;98966.58;1665903;85;21230;-61
2021/04/03 08:44:32;;;;;;;2.58;0.80;;;;;;;9.88;35.49;98958.42;1623471;86;21300;-59
2021/04/03 08:47:04;;;;;;;2.65;1.22;;;;;;;9.96;36.22;98952.34;1653701;85;21553;-59
2021/04/03 08:49:37;;;;;;;3.37;1.02;;;;;;;10.05;35.95;98949.83;1667707;85;21205;-60
2021/04/03 08:52:10;;;;;;;5.55;1.50;;;;;;;10.10;35.00;98951.94;1665518;85;21173;-60
2021/04/03 08:54:41;;;;;;;3.77;1.42;;;;;;;10.12;37.25;98955.20;1667094;85;21165;-60
2021/04/03 08:57:29;;;;;;;2.50;0.95;;;;;;;10.09;34.71;98953.05;1666359;85;21164;-60
2021/04/03 09:00:02;;;;;;;1.90;0.98;;;;;;;9.99;34.44;98949.05;1649444;86;21262;-60
2021/04/03 09:02:32;;;;;;;2.67;1.05;;;;;;;9.98;35.20;98960.50;1666282;86;21222;-63
2021/04/03 09:05:04;;;;;;;3.08;0.88;;;;;;;10.03;37.32;98943.84;1659420;86;21923;-61
2021/04/03 09:07:33;;;;;;;2.92;1.05;;;;;;;10.20;34.87;98947.78;1666639;86;21339;-61
2021/04/03 09:10:14;;;;;;;1.80;0.72;;;;;;;10.26;35.67;98943.92;1635484;86;21204;-61
2021/04/03 09:12:42;;;;;;;1.80;0.75;;;;;;;10.30;34.18;98949.59;1643834;85;21216;-60
2021/04/03 09:15:11;;;;;;;2.00;0.72;;;;;;;10.29;34.88;98954.22;1666651;85;21585;-60
2021/04/03 09:17:48;;;;;;;1.35;0.60;;;;;;;10.33;33.60;98943.03;1664106;86;21234;-60
2021/04/03 09:20:22;;;;;;;1.57;0.80;;;;;;;10.33;33.70;98956.63;1639308;86;21498;-62
2021/04/03 09:22:53;;;;;;;3.05;1.50;;;;;;;10.31;34.38;98947.93;1635252;86;21332;-60
2021/04/03 09:25:22;;;;;;;2.65;1.12;;;;;;;10.39;35.29;98951.38;1665010;86;21605;-60
2021/04/03 09:28:05;;;;;;;2.15;0.82;;;;;;;10.36;34.22;98956.05;1666701;86;21315;-59
2021/04/03 09:30:44;;;;;;;1.20;0.60;;;;;;;10.40;33.76;98957.09;1637030;86;21201;-60
2021/04/03 09:33:22;;;;;;;2.65;0.80;;;;;;;10.43;32.65;98948.35;1652185;86;21608;-60
2021/04/03 09:35:51;;;;;;;3.70;0.93;;;;;;;10.48;32.46;98957.83;1666656;85;21181;-59
2021/04/03 09:41:26;;;;;;;2.27;1.00;;;;;;;10.52;33.49;98954.52;1779284;79;22907;-59
2021/04/03 09:43:54;;;;;;;2.15;0.70;;;;;;;10.62;32.84;98957.13;1713088;82;21298;-59
2021/04/03 09:46:22;;;;;;;2.80;1.10;;;;;;;10.59;32.84;98949.55;1633581;87;21179;-59
2021/04/03 09:48:50;;;;;;;4.42;1.12;;;;;;;10.46;33.03;98955.93;1688623;84;21407;-59
2021/04/03 09:51:17;;;;;;;1.92;0.85;;;;;;;10.47;33.29;98960.28;1687599;84;21184;-60
2021/04/03 09:53:47;;;;;;;3.27;1.02;;;;;;;10.39;30.77;98952.75;1660435;86;21187;-59
2021/04/03 09:56:16;;;;;;;3.70;1.10;;;;;;;10.31;32.32;98953.38;1676965;85;21196;-59
2021/04/03 09:58:43;;;;;;;4.25;1.80;;;;;;;10.39;31.51;98950.57;1663820;85;21213;-59
2021/04/03 10:01:11;;;;;;;19.15;2.67;;;;;;;10.50;30.56;98957.52;1658401;85;21537;-59
2021/04/03 10:03:40;;;;;;;2.27;0.70;;;;;;;10.60;31.47;98958.76;1658117;85;21294;-59
2021/04/03 10:06:07;;;;;;;2.30;0.60;;;;;;;10.63;32.04;98965.55;1669606;85;21664;-59
2021/04/03 10:08:34;;;;;;;1.70;0.55;;;;;;;10.80;31.95;98969.97;1679552;85;21156;-59
2021/04/03 10:11:04;;;;;;;2.05;1.00;;;;;;;11.10;30.73;98980.99;1644613;87;21160;-59
2021/04/03 10:13:32;;;;;;;2.40;0.80;;;;;;;11.14;29.96;98977.40;1639196;86;21236;-59
2021/04/03 10:16:02;;;;;;;1.20;0.60;;;;;;;11.06;30.01;98973.14;1654132;85;21201;-58
2021/04/03 10:18:31;;;;;;;1.40;0.50;;;;;;;10.97;31.64;98977.09;1637960;86;21230;-60
2021/04/03 10:20:59;;;;;;;2.77;1.25;;;;;;;11.02;31.77;98970.78;1676000;85;21201;-59
2021/04/03 10:23:27;;;;;;;2.20;0.82;;;;;;;11.06;27.52;98973.96;1683336;85;21188;-62
2021/04/03 10:25:54;;;;;;;1.22;0.60;;;;;;;11.03;28.86;98961.48;1665864;85;21192;-61
2021/04/03 10:28:22;;;;;;;3.60;0.70;;;;;;;11.06;30.12;98963.06;1649299;86;21609;-61
2021/04/03 10:30:51;;;;;;;2.30;0.70;;;;;;;11.04;29.96;98962.56;1661751;85;21361;-61
2021/04/03 10:33:19;;;;;;;1.75;0.78;;;;;;;10.97;30.39;98959.39;1650805;87;21651;-61
2021/04/03 10:35:46;;;;;;;1.52;0.75;;;;;;;10.86;30.40;98957.35;1656048;85;21185;-61
2021/04/03 10:38:16;;;;;;;1.65;0.50;;;;;;;10.78;31.11;98966.16;1654352;85;21944;-61
2021/04/03 10:40:43;;;;;;;1.55;0.47;;;;;;;10.80;29.92;98958.53;1668720;84;21215;-62
2021/04/03 10:43:13;;;;;;;3.00;0.50;;;;;;;10.87;30.11;98956.80;1686313;84;21193;-62
2021/04/03 10:45:41;;;;;;;1.40;0.50;;;;;;;10.90;30.57;98968.47;1683347;84;21206;-62
2021/04/03 10:48:09;;;;;;;1.72;0.53;;;;;;;10.85;30.02;98963.08;1667775;86;21211;-61
2021/04/03 10:50:36;;;;;;;3.83;1.30;;;;;;;10.91;30.21;98956.48;1691671;84;21335;-62
2021/04/03 10:53:04;;;;;;;2.27;0.98;;;;;;;10.99;32.24;98957.17;1675237;84;21572;-62
2021/04/03 10:55:32;;;;;;;2.75;0.90;;;;;;;11.22;32.08;98959.04;1654214;85;21214;-61
2021/04/03 10:57:59;;;;;;;2.08;0.90;;;;;;;11.34;29.64;98947.67;1640453;86;21528;-62
2021/04/03 11:00:28;;;;;;;2.35;1.00;;;;;;;11.40;30.08;98956.05;1667330;86;21612;-61
2021/04/03 11:02:55;;;;;;;1.65;0.70;;;;;;;11.36;30.01;98953.11;1642397;86;21226;-62
2021/04/03 11:05:23;;;;;;;2.80;0.70;;;;;;;11.27;30.98;98948.59;1666878;86;21180;-61
2021/04/03 11:07:50;;;;;;;4.83;0.75;;;;;;;11.22;30.76;98950.05;1666630;86;21204;-61
2021/04/03 11:10:18;;;;;;;3.05;0.70;;;;;;;11.24;30.65;98952.73;1656517;86;21172;-62
2021/04/03 11:12:45;;;;;;;1.72;0.65;;;;;;;11.34;30.98;98943.04;1686353;84;21306;-61
2021/04/03 11:15:15;;;;;;;1.90;0.70;;;;;;;11.40;30.34;98953.33;1666023;86;21190;-60
2021/04/03 11:17:42;;;;;;;1.57;0.60;;;;;;;11.47;29.91;98951.85;1695867;84;21153;-61
2021/04/03 11:20:12;;;;;;;1.98;0.60;;;;;;;11.53;31.07;98949.03;1696266;84;21129;-60
2021/04/03 11:22:40;;;;;;;1.47;0.60;;;;;;;11.48;30.14;98945.82;1686486;84;21814;-61
2021/04/03 11:25:09;;;;;;;1.80;0.70;;;;;;;11.49;30.46;98944.72;1659299;86;21636;-60
2021/04/03 11:27:37;;;;;;;1.92;0.65;;;;;;;11.57;32.44;98936.43;1659849;84;21547;-61
2021/04/03 11:30:16;;;;;;;2.45;0.50;;;;;;;11.40;30.29;98935.61;1672300;84;21191;-61
2021/04/03 11:32:49;;;;;;;1.67;0.50;;;;;;;11.22;30.94;98929.62;1656463;84;21194;-61
2021/04/03 11:35:19;;;;;;;3.33;0.70;;;;;;;11.21;31.87;98934.80;1666000;86;21595;-61
2021/04/03 11:37:46;;;;;;;3.00;0.70;;;;;;;11.27;32.04;98940.42;1644547;86;21615;-61
2021/04/03 11:40:14;;;;;;;6.35;1.35;;;;;;;11.26;32.48;98940.19;1664607;84;21193;-61
2021/04/03 11:42:42;;;;;;;1.92;0.72;;;;;;;11.23;33.30;98941.56;1648997;85;21185;-60
2021/04/03 11:45:12;;;;;;;5.03;1.15;;;;;;;11.22;32.31;98941.33;1666148;86;21308;-61
2021/04/03 11:47:39;;;;;;;1.57;0.70;;;;;;;11.30;31.91;98942.59;1663610;86;21332;-61
2021/04/03 11:50:08;;;;;;;2.08;0.68;;;;;;;11.25;32.28;98941.28;1657955;86;21204;-61
2021/04/03 11:52:44;;;;;;;3.27;0.70;;;;;;;11.22;31.54;98942.70;1809792;79;23105;-58
2021/04/03 11:55:15;;;;;;;1.52;0.55;;;;;;;11.07;30.49;98942.09;1765566;80;21609;-58
2021/04/03 11:57:43;;;;;;;4.40;1.20;;;;;;;10.94;32.05;98943.64;1781866;80;21145;-58
2021/04/03 12:00:12;;;;;;;1.87;0.65;;;;;;;10.99;30.95;98940.83;1767605;80;21120;-58
2021/04/03 12:02:40;;;;;;;3.12;1.17;;;;;;;11.01;29.45;98951.45;1791300;80;21152;-57